createdAt,value
2018-07-16T00:00:56.303Z,19.81
2018-07-16T00:02:03.215Z,19.80
2018-07-16T00:03:10.118Z,19.77
2018-07-16T00:04:17.059Z,19.77
2018-07-16T00:05:24.027Z,19.76
2018-07-16T00:06:30.996Z,19.75
2018-07-16T00:07:37.915Z,19.72
2018-07-16T00:08:44.839Z,19.73
2018-07-16T00:09:51.870Z,19.71
2018-07-16T00:10:58.822Z,19.70
2018-07-16T00:12:05.696Z,19.67
2018-07-16T00:13:12.671Z,19.67
2018-07-16T00:14:20.897Z,19.65
2018-07-16T00:15:27.595Z,19.64
2018-07-16T00:16:34.991Z,19.62
2018-07-16T00:17:41.468Z,19.61
2018-07-16T00:18:48.335Z,19.60
2018-07-16T00:19:55.183Z,19.58
2018-07-16T00:21:02.056Z,19.58
2018-07-16T00:22:08.971Z,19.56
2018-07-16T00:23:15.811Z,19.55
2018-07-16T00:24:22.663Z,19.54
2018-07-16T00:25:29.542Z,19.53
2018-07-16T00:26:36.367Z,19.52
2018-07-16T00:27:43.270Z,19.50
2018-07-16T00:28:50.522Z,19.49
2018-07-16T00:29:56.927Z,19.47
2018-07-16T00:31:03.791Z,19.46
2018-07-16T00:32:10.642Z,19.46
2018-07-16T00:33:17.586Z,19.45
2018-07-16T00:34:24.390Z,19.43
2018-07-16T00:35:31.226Z,19.42
2018-07-16T00:36:38.059Z,19.40
2018-07-16T00:37:44.902Z,19.39
2018-07-16T00:38:51.934Z,19.37
2018-07-16T00:39:58.734Z,19.36
2018-07-16T00:41:05.596Z,19.34
2018-07-16T00:42:12.474Z,19.33
2018-07-16T00:43:19.287Z,19.32
2018-07-16T00:44:26.259Z,19.32
2018-07-16T00:45:33.118Z,19.31
2018-07-16T00:46:40.080Z,19.28
2018-07-16T00:47:46.980Z,19.27
2018-07-16T00:48:53.919Z,19.27
2018-07-16T00:50:00.807Z,19.26
2018-07-16T00:51:07.800Z,19.25
2018-07-16T00:52:14.702Z,19.23
2018-07-16T00:53:21.533Z,19.24
2018-07-16T00:54:28.395Z,19.20
2018-07-16T00:55:35.291Z,19.19
2018-07-16T00:56:42.147Z,19.18
2018-07-16T00:57:49.079Z,19.17
2018-07-16T00:58:55.926Z,19.15
2018-07-16T01:00:02.887Z,19.13
2018-07-16T01:01:09.771Z,19.13
2018-07-16T01:02:16.679Z,19.13
2018-07-16T01:03:23.520Z,19.11
2018-07-16T01:04:30.363Z,19.11
2018-07-16T01:05:37.260Z,19.09
2018-07-16T01:06:44.120Z,19.08
2018-07-16T01:07:51.047Z,19.06
2018-07-16T01:08:57.955Z,19.05
2018-07-16T01:10:04.881Z,19.04
2018-07-16T01:11:11.767Z,19.04
2018-07-16T01:12:18.623Z,19.01
2018-07-16T01:14:32.550Z,18.98
2018-07-16T01:15:39.390Z,18.99
2018-07-16T01:16:46.254Z,18.97
2018-07-16T01:17:53.163Z,18.96
2018-07-16T01:18:59.991Z,18.94
2018-07-16T01:20:06.778Z,18.93
2018-07-16T01:21:13.611Z,18.92
2018-07-16T01:22:20.478Z,18.92
2018-07-16T01:23:27.315Z,18.90
2018-07-16T01:24:34.399Z,18.88
2018-07-16T01:25:41.267Z,18.87
2018-07-16T01:26:48.339Z,18.86
2018-07-16T01:27:55.183Z,18.85
2018-07-16T01:29:02.079Z,18.84
2018-07-16T01:30:09.071Z,18.84
2018-07-16T01:31:15.882Z,18.83
2018-07-16T01:32:22.703Z,18.81
2018-07-16T01:33:29.563Z,18.80
2018-07-16T01:34:36.600Z,18.79
2018-07-16T01:35:43.555Z,18.79
2018-07-16T01:36:50.439Z,18.77
2018-07-16T01:37:57.306Z,18.76
2018-07-16T01:39:04.163Z,18.75
2018-07-16T01:40:11.016Z,18.74
2018-07-16T01:41:17.867Z,18.72
2018-07-16T01:42:24.691Z,18.71
2018-07-16T01:43:31.567Z,18.70
2018-07-16T01:44:39.183Z,18.69
2018-07-16T01:45:45.590Z,18.68
2018-07-16T01:46:52.419Z,18.66
2018-07-16T01:47:59.382Z,18.65
2018-07-16T01:49:06.255Z,18.63
2018-07-16T01:50:13.090Z,18.62
2018-07-16T01:51:19.927Z,18.61
2018-07-16T01:52:26.791Z,18.60
2018-07-16T01:53:33.634Z,18.59
2018-07-16T01:54:40.469Z,18.59
2018-07-16T01:55:47.428Z,18.58
2018-07-16T01:56:59.461Z,18.56
2018-07-16T01:58:01.344Z,18.56
2018-07-16T01:59:08.167Z,18.53
2018-07-16T02:00:15.011Z,18.54
2018-07-16T02:01:21.850Z,18.51
2018-07-16T02:02:28.719Z,18.50
2018-07-16T02:03:51.307Z,18.50
2018-07-16T02:04:58.226Z,18.49
2018-07-16T02:06:05.178Z,18.48
2018-07-16T02:07:12.007Z,18.47
2018-07-16T02:08:18.843Z,18.45
2018-07-16T02:09:25.883Z,18.45
2018-07-16T02:10:32.736Z,18.44
2018-07-16T02:11:39.596Z,18.44
2018-07-16T02:13:53.334Z,18.40
2018-07-16T02:15:00.268Z,18.40
2018-07-16T02:16:07.183Z,18.40
2018-07-16T02:17:14.087Z,18.38
2018-07-16T02:18:20.932Z,18.36
2018-07-16T02:19:27.848Z,18.34
2018-07-16T02:20:34.671Z,18.35
2018-07-16T02:21:41.572Z,18.32
2018-07-16T02:22:48.462Z,18.32
2018-07-16T02:23:55.372Z,18.30
2018-07-16T02:25:02.220Z,18.30
2018-07-16T02:26:09.183Z,18.29
2018-07-16T02:27:16.010Z,18.28
2018-07-16T02:28:22.875Z,18.26
2018-07-16T02:29:29.724Z,18.26
2018-07-16T02:30:46.324Z,18.25
2018-07-16T02:31:43.746Z,18.24
2018-07-16T02:32:50.604Z,18.22
2018-07-16T02:33:57.496Z,18.22
2018-07-16T02:35:04.339Z,18.20
2018-07-16T02:36:11.228Z,18.20
2018-07-16T02:37:18.060Z,18.18
2018-07-16T02:38:24.995Z,18.17
2018-07-16T02:39:31.825Z,18.16
2018-07-16T02:40:38.799Z,18.14
2018-07-16T02:41:45.945Z,18.14
2018-07-16T02:42:52.813Z,18.12
2018-07-16T02:43:59.704Z,18.11
2018-07-16T02:45:06.586Z,18.09
2018-07-16T02:46:13.539Z,18.08
2018-07-16T02:47:20.496Z,18.08
2018-07-16T02:48:27.359Z,18.07
2018-07-16T02:49:34.235Z,18.05
2018-07-16T02:50:41.118Z,18.04
2018-07-16T02:51:47.932Z,18.04
2018-07-16T02:52:54.784Z,18.05
2018-07-16T02:54:01.708Z,18.01
2018-07-16T02:55:08.579Z,18.01
2018-07-16T02:56:15.405Z,18.00
2018-07-16T02:57:22.267Z,17.97
2018-07-16T02:58:29.179Z,17.97
2018-07-16T02:59:36.035Z,17.95
2018-07-16T03:00:42.864Z,17.94
2018-07-16T03:01:49.735Z,17.94
2018-07-16T03:02:56.604Z,17.93
2018-07-16T03:04:03.471Z,17.92
2018-07-16T03:05:10.358Z,17.89
2018-07-16T03:06:17.159Z,17.90
2018-07-16T03:07:24.006Z,17.88
2018-07-16T03:08:30.828Z,17.89
2018-07-16T03:09:37.630Z,17.87
2018-07-16T03:10:44.513Z,17.85
2018-07-16T03:11:51.378Z,17.84
2018-07-16T03:13:11.967Z,17.83
2018-07-16T03:14:19.044Z,17.81
2018-07-16T03:15:26.324Z,17.80
2018-07-16T03:16:32.655Z,17.79
2018-07-16T03:17:39.531Z,17.78
2018-07-16T03:18:46.500Z,17.77
2018-07-16T03:19:53.350Z,17.77
2018-07-16T03:21:00.158Z,17.75
2018-07-16T03:22:07.444Z,17.73
2018-07-16T03:23:13.762Z,17.73
2018-07-16T03:24:20.610Z,17.72
2018-07-16T03:25:27.456Z,17.71
2018-07-16T03:26:34.300Z,17.70
2018-07-16T03:27:41.246Z,17.69
2018-07-16T03:28:48.146Z,17.67
2018-07-16T03:29:54.966Z,17.66
2018-07-16T03:31:01.808Z,17.65
2018-07-16T03:32:08.652Z,17.64
2018-07-16T03:33:15.543Z,17.63
2018-07-16T03:34:22.418Z,17.61
2018-07-16T03:35:29.295Z,17.61
2018-07-16T03:36:36.203Z,17.60
2018-07-16T03:37:43.023Z,17.59
2018-07-16T03:38:49.867Z,17.58
2018-07-16T03:39:56.763Z,17.57
2018-07-16T03:41:03.608Z,17.55
2018-07-16T03:42:10.511Z,17.55
2018-07-16T03:43:17.337Z,17.55
2018-07-16T03:44:24.259Z,17.53
2018-07-16T03:45:31.090Z,17.52
2018-07-16T03:46:37.862Z,17.51
2018-07-16T03:47:44.710Z,17.50
2018-07-16T03:48:51.600Z,17.51
2018-07-16T03:49:58.487Z,17.48
2018-07-16T03:51:05.366Z,17.47
2018-07-16T03:52:12.211Z,17.46
2018-07-16T03:53:19.060Z,17.46
2018-07-16T03:54:25.917Z,17.44
2018-07-16T03:55:32.727Z,17.42
2018-07-16T03:56:39.637Z,17.43
2018-07-16T03:57:46.551Z,17.40
2018-07-16T03:58:53.401Z,17.41
2018-07-16T04:00:00.192Z,17.38
2018-07-16T04:01:07.197Z,17.38
2018-07-16T04:02:14.061Z,17.36
2018-07-16T04:03:20.868Z,17.37
2018-07-16T04:04:27.679Z,17.35
2018-07-16T04:05:34.516Z,17.33
2018-07-16T04:06:41.327Z,17.33
2018-07-16T04:07:48.201Z,17.33
2018-07-16T04:08:55.035Z,17.31
2018-07-16T04:10:01.854Z,17.31
2018-07-16T04:11:08.764Z,17.30
2018-07-16T04:12:25.819Z,17.30
2018-07-16T04:13:32.641Z,17.29
2018-07-16T04:14:39.472Z,17.28
2018-07-16T04:15:46.313Z,17.25
2018-07-16T04:16:53.110Z,17.25
2018-07-16T04:17:59.963Z,17.24
2018-07-16T04:19:06.791Z,17.21
2018-07-16T04:20:13.603Z,17.22
2018-07-16T04:21:20.427Z,17.21
2018-07-16T04:22:27.242Z,17.22
2018-07-16T04:23:34.031Z,17.20
2018-07-16T04:24:40.887Z,17.18
2018-07-16T04:25:47.731Z,17.18
2018-07-16T04:26:54.550Z,17.18
2018-07-16T04:28:01.391Z,17.17
2018-07-16T04:29:08.303Z,17.15
2018-07-16T04:30:15.163Z,17.13
2018-07-16T04:31:22.055Z,17.13
2018-07-16T04:32:28.938Z,17.12
2018-07-16T04:33:36.064Z,17.11
2018-07-16T04:34:42.966Z,17.09
2018-07-16T04:35:49.816Z,17.08
2018-07-16T04:36:56.667Z,17.07
2018-07-16T04:38:03.776Z,17.07
2018-07-16T04:39:10.291Z,17.07
2018-07-16T04:40:17.099Z,17.05
2018-07-16T04:41:23.942Z,17.04
2018-07-16T04:42:30.807Z,17.04
2018-07-16T04:43:37.989Z,17.01
2018-07-16T04:44:44.354Z,17.01
2018-07-16T04:45:51.159Z,17.00
2018-07-16T04:46:58.027Z,17.00
2018-07-16T04:48:04.923Z,16.99
2018-07-16T04:49:11.775Z,16.98
2018-07-16T04:50:18.618Z,16.97
2018-07-16T04:51:25.471Z,16.97
2018-07-16T04:52:32.313Z,16.97
2018-07-16T04:53:39.124Z,16.96
2018-07-16T04:54:45.976Z,16.95
2018-07-16T04:55:52.801Z,16.94
2018-07-16T04:56:59.614Z,16.94
2018-07-16T04:58:06.511Z,16.94
2018-07-16T04:59:13.403Z,16.95
2018-07-16T05:00:20.283Z,16.94
2018-07-16T05:01:27.218Z,16.93
2018-07-16T05:02:34.284Z,16.93
2018-07-16T05:03:41.117Z,16.92
2018-07-16T05:04:48.087Z,16.93
2018-07-16T05:05:55.209Z,16.92
2018-07-16T05:07:02.273Z,16.91
2018-07-16T05:08:09.419Z,16.91
2018-07-16T05:09:16.324Z,16.90
2018-07-16T05:10:23.326Z,16.90
2018-07-16T05:11:30.346Z,16.90
2018-07-16T05:12:37.475Z,16.89
2018-07-16T05:13:44.483Z,16.89
2018-07-16T05:14:51.323Z,16.87
2018-07-16T05:15:58.206Z,16.89
2018-07-16T05:17:05.054Z,16.88
2018-07-16T05:18:11.955Z,16.88
2018-07-16T05:19:18.956Z,16.88
2018-07-16T05:20:25.932Z,16.87
2018-07-16T05:21:32.937Z,16.86
2018-07-16T05:22:39.892Z,16.86
2018-07-16T05:23:53.426Z,16.85
2018-07-16T05:24:59.302Z,16.86
2018-07-16T05:27:40.538Z,16.84
2018-07-16T05:28:47.413Z,16.84
2018-07-16T05:29:54.433Z,16.83
2018-07-16T05:31:01.745Z,16.85
2018-07-16T05:32:09.281Z,16.84
2018-07-16T05:33:15.255Z,16.83
2018-07-16T05:34:22.340Z,16.84
2018-07-16T05:35:29.141Z,16.83
2018-07-16T05:36:36.178Z,16.82
2018-07-16T05:38:49.632Z,16.84
2018-07-16T05:39:56.873Z,16.83
2018-07-16T05:41:03.636Z,16.84
2018-07-16T05:42:10.456Z,16.84
2018-07-16T05:43:17.482Z,16.84
2018-07-16T05:44:25.783Z,16.83
2018-07-16T05:45:31.318Z,16.82
2018-07-16T05:51:57.327Z,16.82
2018-07-16T05:53:04.240Z,16.81
2018-07-16T05:54:11.221Z,16.81
2018-07-16T05:55:18.289Z,16.82
2018-07-16T05:56:25.160Z,16.83
2018-07-16T05:57:32.090Z,16.82
2018-07-16T06:05:52.824Z,16.85
2018-07-16T06:07:00.278Z,16.84
2018-07-16T06:08:07.916Z,16.84
2018-07-16T06:09:25.053Z,16.87
2018-07-16T06:10:31.998Z,16.86
2018-07-16T06:11:38.837Z,16.87
2018-07-16T06:12:45.956Z,16.86
2018-07-16T06:13:52.613Z,16.87
2018-07-16T06:14:59.303Z,16.89
2018-07-16T06:17:13.426Z,16.86
2018-07-16T06:18:20.126Z,16.88
2018-07-16T06:19:26.799Z,16.89
2018-07-16T06:20:34.083Z,16.89
2018-07-16T06:21:49.539Z,16.88
2018-07-16T06:31:16.517Z,16.89
2018-07-16T07:31:50.527Z,17.03
2018-07-16T08:03:11.865Z,17.50
2018-07-16T08:09:13.160Z,17.90
2018-07-16T08:10:19.996Z,17.95
2018-07-16T08:15:30.825Z,17.95
2018-07-16T08:16:38.880Z,18.01
2018-07-16T08:17:50.050Z,18.02
2018-07-16T08:18:51.648Z,18.03
2018-07-16T08:25:02.509Z,18.13
2018-07-16T08:28:22.104Z,18.18
2018-07-16T08:29:28.009Z,18.18
2018-07-16T08:30:35.001Z,18.21
2018-07-16T08:31:41.713Z,18.22
2018-07-16T08:32:48.593Z,18.23
2018-07-16T08:33:55.634Z,18.24
2018-07-16T08:35:02.747Z,18.26
2018-07-16T08:36:09.630Z,18.27
2018-07-16T08:37:16.608Z,18.30
2018-07-16T08:38:23.805Z,18.30
2018-07-16T08:39:30.368Z,18.32
2018-07-16T08:40:37.312Z,18.34
2018-07-16T08:41:44.254Z,18.36
2018-07-16T08:42:51.318Z,18.39
2018-07-16T08:45:05.152Z,18.41
2018-07-16T08:46:12.262Z,18.45
2018-07-16T08:47:19.313Z,18.46
2018-07-16T08:48:26.365Z,18.47
2018-07-16T08:49:32.991Z,18.49
2018-07-16T08:51:46.683Z,18.52
2018-07-16T08:52:53.735Z,18.53
2018-07-16T08:54:00.606Z,18.57
2018-07-16T08:55:07.664Z,18.57
2018-07-16T08:56:14.808Z,18.59
2018-07-16T08:57:21.889Z,18.61
2018-07-16T08:58:28.750Z,18.63
2018-07-16T08:59:36.099Z,18.63
2018-07-16T09:00:42.779Z,18.66
2018-07-16T09:01:49.710Z,18.68
2018-07-16T09:02:56.782Z,18.71
2018-07-16T09:04:03.641Z,18.73
2018-07-16T09:05:10.482Z,18.76
2018-07-16T09:06:17.599Z,18.76
2018-07-16T09:07:24.575Z,18.80
2018-07-16T09:08:31.460Z,18.82
2018-07-16T09:09:38.201Z,18.84
2018-07-16T09:10:45.129Z,18.84
2018-07-16T09:11:52.064Z,18.87
2018-07-16T09:12:59.062Z,18.89
2018-07-16T09:14:09.596Z,18.90
2018-07-16T09:15:14.467Z,18.92
2018-07-16T09:16:20.115Z,18.94
2018-07-16T09:18:34.015Z,18.99
2018-07-16T09:19:40.867Z,19.01
2018-07-16T09:20:47.750Z,19.02
2018-07-16T09:21:54.505Z,19.05
2018-07-16T09:23:01.506Z,19.08
2018-07-16T09:24:08.442Z,19.09
2018-07-16T09:25:15.438Z,19.12
2018-07-16T09:26:22.438Z,19.14
2018-07-16T09:27:34.832Z,19.17
2018-07-16T09:28:36.513Z,19.17
2018-07-16T09:29:43.250Z,19.20
2018-07-16T09:30:51.007Z,19.25
2018-07-16T09:31:57.234Z,19.27
2018-07-16T09:33:05.295Z,19.29
2018-07-16T09:34:11.228Z,19.32
2018-07-16T09:35:21.821Z,19.33
2018-07-16T09:36:24.963Z,19.35
2018-07-16T09:37:31.987Z,19.39
2018-07-16T09:38:38.702Z,19.40
2018-07-16T09:39:45.652Z,19.43
2018-07-16T09:40:52.676Z,19.44
2018-07-16T09:41:59.444Z,19.47
2018-07-16T09:43:06.404Z,19.49
2018-07-16T09:44:13.095Z,19.50
2018-07-16T09:45:22.944Z,19.52
2018-07-16T09:46:27.151Z,19.54
2018-07-16T09:47:33.981Z,19.56
2018-07-16T09:48:40.987Z,19.59
2018-07-16T09:49:47.919Z,19.61
2018-07-16T09:50:54.625Z,19.64
2018-07-16T09:52:01.516Z,19.66
2018-07-16T09:53:08.378Z,19.69
2018-07-16T09:54:15.590Z,19.71
2018-07-16T09:55:23.371Z,19.74
2018-07-16T09:56:29.012Z,19.77
2018-07-16T09:57:35.875Z,19.78
2018-07-16T09:58:42.767Z,19.79
2018-07-16T09:59:49.838Z,19.83
2018-07-16T10:00:56.970Z,19.84
2018-07-16T10:02:03.714Z,19.86
2018-07-16T10:03:10.797Z,19.89
2018-07-16T10:04:17.922Z,19.90
2018-07-16T10:05:24.943Z,19.92
2018-07-16T10:06:31.914Z,19.94
2018-07-16T10:07:38.811Z,19.97
2018-07-16T10:08:45.908Z,19.99
2018-07-16T10:09:53.755Z,20.02
2018-07-16T10:11:00.535Z,20.04
2018-07-16T10:12:07.040Z,20.07
2018-07-16T10:13:14.020Z,20.09
2018-07-16T10:14:21.202Z,20.11
2018-07-16T10:15:28.011Z,20.12
2018-07-16T10:16:34.800Z,20.14
2018-07-16T10:17:41.650Z,20.17
2018-07-16T10:18:48.394Z,20.19
2018-07-16T10:19:55.095Z,20.24
2018-07-16T10:21:02.241Z,20.25
2018-07-16T10:22:08.971Z,20.28
2018-07-16T10:23:15.790Z,20.29
2018-07-16T10:24:22.692Z,20.32
2018-07-16T10:25:29.510Z,20.33
2018-07-16T10:26:36.359Z,20.36
2018-07-16T10:27:43.249Z,20.37
2018-07-16T10:28:50.106Z,20.40
2018-07-16T10:29:57.030Z,20.43
2018-07-16T10:31:04.982Z,20.46
2018-07-16T10:32:10.874Z,20.48
2018-07-16T10:33:17.630Z,20.49
2018-07-16T10:34:24.404Z,20.50
2018-07-16T10:35:32.434Z,20.53
2018-07-16T10:36:38.088Z,20.55
2018-07-16T10:37:46.047Z,20.57
2018-07-16T10:38:51.979Z,20.60
2018-07-16T10:39:59.064Z,20.63
2018-07-16T10:41:06.248Z,20.65
2018-07-16T10:42:12.842Z,20.69
2018-07-16T10:43:19.733Z,20.71
2018-07-16T10:44:26.675Z,20.75
2018-07-16T10:45:36.685Z,20.75
2018-07-16T10:46:40.698Z,20.78
2018-07-16T10:47:47.706Z,20.80
2018-07-16T10:48:54.675Z,20.83
2018-07-16T10:50:01.803Z,20.85
2018-07-16T10:51:09.594Z,20.87
2018-07-16T10:52:15.370Z,20.88
2018-07-16T10:53:22.162Z,20.90
2018-07-16T10:54:29.011Z,20.93
2018-07-16T10:55:35.938Z,20.94
2018-07-16T10:56:42.945Z,20.96
2018-07-16T10:57:49.913Z,20.97
2018-07-16T10:58:56.861Z,21.00
2018-07-16T11:00:03.490Z,21.03
2018-07-16T11:01:10.300Z,21.06
2018-07-16T11:02:17.313Z,21.08
2018-07-16T11:03:24.227Z,21.09
2018-07-16T11:04:31.196Z,21.12
2018-07-16T11:05:38.222Z,21.14
2018-07-16T11:06:45.170Z,21.17
2018-07-16T11:07:53.687Z,21.20
2018-07-16T11:08:59.399Z,21.21
2018-07-16T11:10:06.542Z,21.23
2018-07-16T11:11:13.655Z,21.26
2018-07-16T11:12:22.816Z,21.27
2018-07-16T11:13:27.158Z,21.29
2018-07-16T11:14:34.231Z,21.30
2018-07-16T11:15:40.842Z,21.33
2018-07-16T11:16:47.922Z,21.36
2018-07-16T11:17:55.888Z,21.37
2018-07-16T11:19:01.973Z,21.39
2018-07-16T11:20:08.928Z,21.41
2018-07-16T11:21:16.062Z,21.43
2018-07-16T11:22:23.951Z,21.45
2018-07-16T11:23:30.455Z,21.49
2018-07-16T11:24:36.374Z,21.50
2018-07-16T11:25:52.228Z,21.53
2018-07-16T11:26:50.791Z,21.55
2018-07-16T11:27:57.268Z,21.57
2018-07-16T11:29:04.663Z,21.58
2018-07-16T11:30:11.035Z,21.61
2018-07-16T11:31:17.946Z,21.64
2018-07-16T11:32:24.787Z,21.67
2018-07-16T11:33:31.634Z,21.68
2018-07-16T11:34:38.649Z,21.69
2018-07-16T11:35:45.205Z,21.72
2018-07-16T11:36:52.339Z,21.72
2018-07-16T11:37:59.142Z,21.74
2018-07-16T11:39:05.972Z,21.76
2018-07-16T11:40:12.737Z,21.78
2018-07-16T11:41:19.579Z,21.80
2018-07-16T11:42:26.344Z,21.83
2018-07-16T11:43:33.198Z,21.85
2018-07-16T11:44:40.155Z,21.87
2018-07-16T11:45:46.958Z,21.90
2018-07-16T11:46:53.790Z,21.90
2018-07-16T11:48:00.551Z,21.92
2018-07-16T11:49:07.358Z,21.94
2018-07-16T11:50:14.133Z,21.96
2018-07-16T11:51:20.882Z,21.98
2018-07-16T11:52:27.733Z,22.00
2018-07-16T11:53:34.502Z,22.01
2018-07-16T11:54:41.298Z,22.03
2018-07-16T11:55:48.162Z,22.05
2018-07-16T11:56:54.945Z,22.06
2018-07-16T11:58:01.789Z,22.08
2018-07-16T11:59:08.665Z,22.10
2018-07-16T12:00:15.544Z,22.12
2018-07-16T12:01:22.383Z,22.14
2018-07-16T12:02:29.182Z,22.15
2018-07-16T12:03:36.158Z,22.17
2018-07-16T12:04:43.071Z,22.20
2018-07-16T12:05:49.932Z,22.20
2018-07-16T12:06:56.822Z,22.24
2018-07-16T12:08:03.675Z,22.24
2018-07-16T12:09:10.670Z,22.27
2018-07-16T12:10:17.514Z,22.28
2018-07-16T12:11:24.384Z,22.30
2018-07-16T12:12:31.250Z,22.33
2018-07-16T12:13:38.022Z,22.35
2018-07-16T12:14:45.495Z,22.36
2018-07-16T12:15:51.845Z,22.37
2018-07-16T12:16:58.778Z,22.38
2018-07-16T12:18:05.555Z,22.40
2018-07-16T12:19:12.391Z,22.42
2018-07-16T12:20:19.695Z,22.43
2018-07-16T12:21:26.379Z,22.44
2018-07-16T12:22:33.226Z,22.47
2018-07-16T12:23:40.135Z,22.48
2018-07-16T12:24:47.038Z,22.49
2018-07-16T12:25:53.945Z,22.50
2018-07-16T12:27:00.834Z,22.52
2018-07-16T12:28:07.698Z,22.52
2018-07-16T12:29:14.482Z,22.54
2018-07-16T12:30:21.286Z,22.57
2018-07-16T12:31:28.105Z,22.58
2018-07-16T12:32:34.859Z,22.61
2018-07-16T12:33:41.655Z,22.61
2018-07-16T12:34:48.436Z,22.63
2018-07-16T12:35:55.342Z,22.66
2018-07-16T12:37:02.179Z,22.67
2018-07-16T12:38:09.186Z,22.68
2018-07-16T12:39:15.981Z,22.69
2018-07-16T12:40:22.758Z,22.69
2018-07-16T12:41:29.576Z,22.70
2018-07-16T12:42:36.366Z,22.71
2018-07-16T12:43:43.165Z,22.73
2018-07-16T12:44:51.128Z,22.75
2018-07-16T12:45:56.877Z,22.76
2018-07-16T12:47:03.894Z,22.77
2018-07-16T12:48:10.803Z,22.78
2018-07-16T12:49:17.603Z,22.80
2018-07-16T12:50:24.379Z,22.82
2018-07-16T12:51:31.134Z,22.83
2018-07-16T12:52:37.913Z,22.85
2018-07-16T12:53:44.643Z,22.86
2018-07-16T12:54:51.414Z,22.88
2018-07-16T12:55:58.306Z,22.88
2018-07-16T12:57:05.134Z,22.89
2018-07-16T12:58:11.866Z,22.90
2018-07-16T12:59:18.632Z,22.92
2018-07-16T13:00:25.871Z,22.93
2018-07-16T13:01:32.178Z,22.93
2018-07-16T13:02:38.922Z,22.97
2018-07-16T13:03:45.678Z,22.99
2018-07-16T13:04:52.476Z,23.00
2018-07-16T13:05:59.340Z,23.00
2018-07-16T13:07:06.116Z,23.03
2018-07-16T13:08:12.896Z,23.04
2018-07-16T13:09:19.702Z,23.05
2018-07-16T13:10:26.522Z,23.07
2018-07-16T13:11:33.370Z,23.10
2018-07-16T13:12:40.157Z,23.10
2018-07-16T13:13:46.935Z,23.10
2018-07-16T13:14:53.729Z,23.12
2018-07-16T13:16:00.552Z,23.13
2018-07-16T13:17:07.331Z,23.14
2018-07-16T13:18:14.189Z,23.16
2018-07-16T13:19:20.982Z,23.17
2018-07-16T13:20:27.774Z,23.19
2018-07-16T13:21:34.647Z,23.19
2018-07-16T13:22:41.526Z,23.22
2018-07-16T13:23:48.285Z,23.23
2018-07-16T13:24:55.067Z,23.24
2018-07-16T13:26:01.975Z,23.24
2018-07-16T13:27:08.822Z,23.25
2018-07-16T13:28:15.610Z,23.28
2018-07-16T13:29:22.357Z,23.27
2018-07-16T13:30:29.167Z,23.29
2018-07-16T13:31:35.935Z,23.31
2018-07-16T13:32:42.774Z,23.33
2018-07-16T13:33:49.569Z,23.35
2018-07-16T13:34:56.363Z,23.36
2018-07-16T13:36:03.239Z,23.35
2018-07-16T13:37:10.107Z,23.37
2018-07-16T13:38:16.846Z,23.39
2018-07-16T13:39:23.651Z,23.40
2018-07-16T13:40:30.539Z,23.42
2018-07-16T13:41:37.391Z,23.44
2018-07-16T13:42:44.195Z,23.44
2018-07-16T13:43:50.980Z,23.46
2018-07-16T13:44:57.829Z,23.46
2018-07-16T13:46:04.698Z,23.49
2018-07-16T13:47:11.484Z,23.50
2018-07-16T13:48:18.316Z,23.51
2018-07-16T13:49:25.135Z,23.52
2018-07-16T13:50:31.908Z,23.53
2018-07-16T13:51:38.655Z,23.54
2018-07-16T13:52:45.926Z,23.54
2018-07-16T13:53:52.222Z,23.56
2018-07-16T13:54:59.046Z,23.58
2018-07-16T13:56:05.834Z,23.59
2018-07-16T13:57:12.691Z,23.60
2018-07-16T13:58:19.447Z,23.61
2018-07-16T13:59:26.242Z,23.62
2018-07-16T14:00:33.278Z,23.64
2018-07-16T14:01:40.065Z,23.65
2018-07-16T14:02:46.869Z,23.66
2018-07-16T14:03:53.659Z,23.68
2018-07-16T14:05:00.435Z,23.70
2018-07-16T14:06:07.447Z,23.71
2018-07-16T14:07:14.209Z,23.73
2018-07-16T14:08:21.042Z,23.74
2018-07-16T14:09:27.838Z,23.74
2018-07-16T14:10:34.621Z,23.75
2018-07-16T14:11:41.400Z,23.76
2018-07-16T14:12:48.230Z,23.79
2018-07-16T14:13:55.005Z,23.80
2018-07-16T14:15:01.795Z,23.81
2018-07-16T14:16:08.887Z,23.83
2018-07-16T14:17:15.590Z,23.83
2018-07-16T14:18:22.434Z,23.85
2018-07-16T14:19:29.193Z,23.86
2018-07-16T14:20:36.019Z,23.88
2018-07-16T14:21:42.849Z,23.89
2018-07-16T14:22:49.629Z,23.89
2018-07-16T14:23:56.773Z,23.92
2018-07-16T14:25:03.518Z,23.93
2018-07-16T14:26:10.259Z,23.94
2018-07-16T14:27:17.011Z,23.96
2018-07-16T14:28:23.766Z,23.97
2018-07-16T14:29:30.510Z,23.99
2018-07-16T14:30:37.314Z,23.99
2018-07-16T14:31:44.063Z,24.02
2018-07-16T14:32:50.786Z,24.03
2018-07-16T14:33:57.621Z,24.05
2018-07-16T14:35:04.483Z,24.04
2018-07-16T14:36:12.582Z,24.06
2018-07-16T14:37:18.315Z,24.07
2018-07-16T14:38:25.174Z,24.08
2018-07-16T14:39:32.391Z,24.09
2018-07-16T14:40:38.882Z,24.11
2018-07-16T14:41:45.780Z,24.11
2018-07-16T14:42:52.619Z,24.11
2018-07-16T14:43:59.406Z,24.13
2018-07-16T14:45:06.268Z,24.14
2018-07-16T14:46:13.149Z,24.16
2018-07-16T14:47:19.965Z,24.18
2018-07-16T14:48:26.741Z,24.18
2018-07-16T14:49:33.494Z,24.18
2018-07-16T14:50:40.330Z,24.19
2018-07-16T14:51:47.123Z,24.21
2018-07-16T14:52:53.917Z,24.23
2018-07-16T14:54:00.737Z,24.23
2018-07-16T14:55:07.645Z,24.25
2018-07-16T14:56:14.567Z,24.26
2018-07-16T14:57:21.303Z,24.27
2018-07-16T14:58:28.042Z,24.28
2018-07-16T14:59:34.870Z,24.29
2018-07-16T15:00:41.613Z,24.31
2018-07-16T15:01:48.510Z,24.31
2018-07-16T15:02:55.282Z,24.33
2018-07-16T15:04:02.042Z,24.33
2018-07-16T15:05:08.818Z,24.34
2018-07-16T15:06:15.716Z,24.36
2018-07-16T15:07:22.465Z,24.38
2018-07-16T15:08:29.251Z,24.37
2018-07-16T15:09:36.071Z,24.37
2018-07-16T15:10:42.840Z,24.39
2018-07-16T15:11:49.614Z,24.40
2018-07-16T15:12:56.957Z,24.40
2018-07-16T15:14:03.456Z,24.42
2018-07-16T15:16:17.543Z,24.44
2018-07-16T15:18:37.602Z,24.46
2018-07-16T15:19:38.178Z,24.47
2018-07-16T15:20:45.437Z,24.46
2018-07-16T15:22:59.079Z,24.50
2018-07-16T15:24:06.185Z,24.51
2018-07-16T15:25:12.968Z,24.52
2018-07-16T15:26:20.054Z,24.53
2018-07-16T15:27:26.849Z,24.53
2018-07-16T15:28:33.655Z,24.53
2018-07-16T15:29:40.481Z,24.55
2018-07-16T15:30:47.258Z,24.55
2018-07-16T15:31:54.096Z,24.57
2018-07-16T15:33:00.874Z,24.59
2018-07-16T15:34:07.729Z,24.59
2018-07-16T15:35:14.614Z,24.59
2018-07-16T15:36:21.441Z,24.60
2018-07-16T15:37:28.240Z,24.62
2018-07-16T15:38:35.072Z,24.63
2018-07-16T15:39:42.007Z,24.65
2018-07-16T15:40:48.887Z,24.65
2018-07-16T15:41:55.698Z,24.68
2018-07-16T15:43:02.576Z,24.67
2018-07-16T15:44:09.727Z,24.68
2018-07-16T15:45:16.530Z,24.68
2018-07-16T15:46:23.498Z,24.70
2018-07-16T15:47:30.270Z,24.70
2018-07-16T15:48:37.083Z,24.72
2018-07-16T15:49:43.798Z,24.73
2018-07-16T15:50:50.899Z,24.74
2018-07-16T15:51:57.710Z,24.75
2018-07-16T15:53:04.514Z,24.76
2018-07-16T15:54:11.287Z,24.77
2018-07-16T15:55:18.086Z,24.78
2018-07-16T15:56:24.910Z,24.79
2018-07-16T15:57:31.787Z,24.81
2018-07-16T15:58:38.549Z,24.83
2018-07-16T15:59:45.291Z,24.84
2018-07-16T16:00:52.044Z,24.85
2018-07-16T16:01:58.950Z,24.85
2018-07-16T16:03:06.083Z,24.86
2018-07-16T16:04:12.793Z,24.88
2018-07-16T16:05:19.595Z,24.88
2018-07-16T16:06:26.381Z,24.89
2018-07-16T16:07:33.121Z,24.90
2018-07-16T16:08:39.861Z,24.91
2018-07-16T16:09:46.626Z,24.92
2018-07-16T16:10:54.854Z,24.94
2018-07-16T16:12:00.183Z,24.96
2018-07-16T16:13:07.008Z,24.96
2018-07-16T16:14:13.706Z,24.98
2018-07-16T16:15:20.581Z,24.99
2018-07-16T16:16:27.444Z,25.00
2018-07-16T16:17:34.216Z,24.98
2018-07-16T16:18:41.043Z,25.00
2018-07-16T16:19:47.800Z,25.00
2018-07-16T16:20:54.558Z,25.03
2018-07-16T16:22:01.333Z,25.04
2018-07-16T16:23:08.448Z,25.05
2018-07-16T16:24:15.234Z,25.06
2018-07-16T16:25:22.006Z,25.07
2018-07-16T16:26:29.296Z,25.08
2018-07-16T16:27:35.474Z,25.09
2018-07-16T16:28:42.293Z,25.09
2018-07-16T16:29:49.068Z,25.10
2018-07-16T16:30:55.850Z,25.11
2018-07-16T16:32:02.830Z,25.10
2018-07-16T16:33:09.520Z,25.11
2018-07-16T16:34:16.346Z,25.12
2018-07-16T16:35:23.164Z,25.13
2018-07-16T16:36:29.949Z,25.13
2018-07-16T16:37:36.742Z,25.14
2018-07-16T16:38:43.600Z,25.15
2018-07-16T16:39:50.378Z,25.16
2018-07-16T16:40:57.181Z,25.16
2018-07-16T16:42:04.494Z,25.17